Time;durP1;ratioP1;P1;durP2;ratioP2;P2;SDS_P1;SDS_P2;PMS_P1;PMS_P2;Temp;Humidity;BMP_temperature;BMP_pressure;BME280_temperature;BME280_humidity;BME280_pressure;Samples;Min_cycle;Max_cycle;Signal;HPM_P1;HPM_P2
2023/07/23 00:00:48;;;;;;;0.30;0.30;;;;;;;14.27;84.00;98658.81;5071992;28;20048;-80
2023/07/23 00:03:15;;;;;;;0.40;0.40;;;;;;;14.17;84.40;98649.91;5068534;28;20844;-82
2023/07/23 00:05:47;;;;;;;0.30;0.30;;;;;;;14.07;85.00;98648.84;5037697;28;20075;-82
2023/07/23 00:08:14;;;;;;;0.40;0.40;;;;;;;14.03;85.37;98649.69;5071692;28;20461;-82
2023/07/23 00:10:41;;;;;;;0.30;0.30;;;;;;;14.02;85.78;98650.75;5053374;28;20049;-80
2023/07/23 00:13:08;;;;;;;0.40;0.40;;;;;;;13.99;86.27;98648.59;5054001;28;20135;-81
2023/07/23 00:15:38;;;;;;;0.40;0.40;;;;;;;13.95;86.21;98652.94;5053996;28;20042;-81
2023/07/23 00:18:05;;;;;;;0.30;0.30;;;;;;;13.88;86.52;98653.25;5070801;28;20156;-80
2023/07/23 00:20:32;;;;;;;0.32;0.32;;;;;;;13.79;86.99;98647.56;5069818;28;20503;-80
2023/07/23 00:22:59;;;;;;;0.40;0.40;;;;;;;13.76;87.47;98644.59;5053070;28;20056;-81
2023/07/23 00:25:26;;;;;;;0.30;0.30;;;;;;;13.76;87.83;98642.69;5070893;28;20135;-81
2023/07/23 00:27:53;;;;;;;0.30;0.30;;;;;;;13.77;87.83;98649.72;5070227;28;20550;-85
2023/07/23 00:30:20;;;;;;;0.30;0.30;;;;;;;13.84;87.75;98652.97;5035260;28;20530;-84
2023/07/23 00:32:47;;;;;;;0.40;0.40;;;;;;;13.89;87.48;98649.44;5071551;28;20055;-83
2023/07/23 00:35:15;;;;;;;0.40;0.40;;;;;;;13.93;87.28;98649.72;5071375;28;20139;-82
2023/07/23 00:37:42;;;;;;;0.30;0.30;;;;;;;13.92;87.28;98653.50;5056671;28;20090;-84
2023/07/23 00:40:10;;;;;;;0.40;0.40;;;;;;;13.86;87.51;98650.81;5081292;28;20578;-84
2023/07/23 00:42:37;;;;;;;0.30;0.30;;;;;;;13.83;87.91;98647.84;5061619;28;20055;-84
2023/07/23 00:45:04;;;;;;;0.35;0.35;;;;;;;13.76;88.18;98639.97;5021003;28;20506;-83
2023/07/23 00:47:33;;;;;;;0.40;0.40;;;;;;;13.71;88.47;98644.59;5070998;28;20052;-83
2023/07/23 00:50:02;;;;;;;0.40;0.40;;;;;;;13.69;88.98;98650.28;5070932;28;20068;-83
2023/07/23 00:52:30;;;;;;;0.30;0.30;;;;;;;13.68;88.75;98653.28;5053940;28;20054;-84
2023/07/23 00:54:57;;;;;;;0.30;0.30;;;;;;;13.65;89.46;98646.50;5071100;28;20075;-82
2023/07/23 00:57:24;;;;;;;0.40;0.40;;;;;;;13.63;89.53;98641.34;5053596;28;20056;-83
2023/07/23 00:59:52;;;;;;;0.40;0.40;;;;;;;13.63;89.55;98648.69;5053594;28;20419;-84
2023/07/23 01:02:19;;;;;;;0.40;0.40;;;;;;;13.64;89.76;98653.81;5071627;28;20040;-84
2023/07/23 01:04:46;;;;;;;0.40;0.40;;;;;;;13.57;89.96;98647.03;5072246;28;20057;-84
2023/07/23 01:07:13;;;;;;;0.30;0.30;;;;;;;13.60;90.14;98652.75;5087038;28;20053;-84
2023/07/23 01:09:41;;;;;;;0.30;0.30;;;;;;;13.60;90.24;98646.53;5071284;28;20048;-83
2023/07/23 01:12:08;;;;;;;0.40;0.40;;;;;;;13.60;90.35;98644.63;5004064;28;20068;-83
2023/07/23 01:14:36;;;;;;;0.40;0.40;;;;;;;13.55;90.50;98641.91;5071193;28;20048;-83
2023/07/23 01:17:04;;;;;;;0.30;0.30;;;;;;;13.57;90.63;98644.31;5053218;28;20406;-83
2023/07/23 01:19:31;;;;;;;0.38;0.38;;;;;;;13.54;90.83;98640.25;5052465;28;20054;-84
2023/07/23 01:22:05;;;;;;;0.40;0.40;;;;;;;13.61;90.86;98648.13;5053059;28;20045;-84
2023/07/23 01:24:35;;;;;;;0.35;0.35;;;;;;;13.58;90.47;98640.56;5070681;28;20451;-83
2023/07/23 01:27:03;;;;;;;0.40;0.40;;;;;;;13.62;90.27;98644.31;5070941;28;20044;-83
2023/07/23 01:29:30;;;;;;;0.30;0.30;;;;;;;13.61;90.15;98642.72;5069366;28;20132;-83
2023/07/23 01:31:57;;;;;;;0.30;0.30;;;;;;;13.60;89.92;98649.22;5070888;28;20053;-83
2023/07/23 01:34:24;;;;;;;0.30;0.30;;;;;;;13.66;89.72;98648.13;5069485;28;20049;-83
2023/07/23 01:36:51;;;;;;;0.30;0.30;;;;;;;13.68;89.67;98645.97;5069538;28;20056;-84
2023/07/23 01:39:19;;;;;;;0.40;0.40;;;;;;;13.68;89.88;98645.97;5069522;28;20056;-84
2023/07/23 01:41:47;;;;;;;0.30;0.30;;;;;;;13.69;89.42;98642.16;5071026;28;20044;-83
2023/07/23 01:44:13;;;;;;;0.40;0.40;;;;;;;13.72;89.32;98654.34;5052806;28;20094;-83
2023/07/23 01:46:40;;;;;;;0.30;0.30;;;;;;;13.73;89.08;98651.38;5053034;28;20075;-84
2023/07/23 01:49:08;;;;;;;0.30;0.30;;;;;;;13.75;89.01;98646.50;5036117;28;20083;-84
2023/07/23 01:51:35;;;;;;;0.30;0.30;;;;;;;13.77;88.95;98644.28;5070704;28;20051;-84
2023/07/23 01:54:02;;;;;;;0.30;0.30;;;;;;;13.81;88.62;98648.09;5070534;28;20044;-83
2023/07/23 01:56:29;;;;;;;0.30;0.30;;;;;;;13.83;88.22;98653.25;5069442;28;20888;-84
2023/07/23 01:58:56;;;;;;;0.40;0.40;;;;;;;13.85;88.00;98646.47;5069381;28;20052;-83
2023/07/23 02:01:23;;;;;;;0.30;0.30;;;;;;;13.86;87.66;98650.00;5069216;28;20090;-83
2023/07/23 02:03:50;;;;;;;0.40;0.40;;;;;;;13.86;87.50;98645.38;5070572;28;20507;-83
2023/07/23 02:06:17;;;;;;;0.40;0.40;;;;;;;13.86;87.63;98644.56;5052502;28;20595;-83
2023/07/23 02:08:44;;;;;;;0.40;0.40;;;;;;;13.85;87.44;98649.19;5036203;28;20052;-82
2023/07/23 02:11:11;;;;;;;0.40;0.40;;;;;;;13.81;87.51;98642.66;5069437;28;20044;-83
2023/07/23 02:13:38;;;;;;;0.38;0.38;;;;;;;13.83;87.17;98648.66;5052905;28;20040;-83
2023/07/23 02:16:05;;;;;;;0.40;0.40;;;;;;;13.79;87.32;98647.56;5071474;28;20048;-83
2023/07/23 02:18:32;;;;;;;0.30;0.30;;;;;;;13.79;87.79;98644.03;5070417;28;20517;-84
2023/07/23 02:20:59;;;;;;;0.30;0.30;;;;;;;13.79;87.89;98646.75;5069670;28;20206;-83
2023/07/23 02:23:26;;;;;;;0.35;0.35;;;;;;;13.76;88.23;98650.81;5071568;28;20072;-82
2023/07/23 02:25:53;;;;;;;0.30;0.30;;;;;;;13.72;88.56;98647.03;5085906;28;20052;-81
2023/07/23 02:28:20;;;;;;;0.30;0.30;;;;;;;13.65;88.93;98644.59;5074003;28;20081;-83
2023/07/23 02:30:55;;;;;;;0.40;0.40;;;;;;;13.62;89.14;98641.63;5076607;28;20105;-82
2023/07/23 02:33:22;;;;;;;0.40;0.40;;;;;;;13.60;89.73;98646.53;5094450;28;20044;-83
2023/07/23 02:35:49;;;;;;;0.40;0.40;;;;;;;13.55;89.99;98641.09;5076591;28;20120;-82
2023/07/23 02:38:17;;;;;;;0.40;0.40;;;;;;;13.58;90.28;98640.56;5094155;28;20505;-83
2023/07/23 02:40:44;;;;;;;0.30;0.30;;;;;;;13.60;90.13;98641.09;5093144;28;20402;-83
2023/07/23 02:43:12;;;;;;;0.40;0.40;;;;;;;13.61;89.99;98642.72;5094638;28;20105;-83
2023/07/23 02:45:39;;;;;;;0.40;0.40;;;;;;;13.62;89.81;98652.47;5076393;28;20048;-82
2023/07/23 02:48:07;;;;;;;0.40;0.40;;;;;;;13.63;89.84;98649.47;5076372;28;20093;-84
2023/07/23 02:50:34;;;;;;;0.30;0.30;;;;;;;13.65;89.59;98638.38;5077772;28;20049;-82
2023/07/23 02:53:01;;;;;;;0.40;0.40;;;;;;;13.69;89.45;98636.72;5094528;28;20130;-82
2023/07/23 02:55:28;;;;;;;0.30;0.30;;;;;;;13.82;89.00;98646.19;5095786;28;20055;-82
2023/07/23 02:57:56;;;;;;;0.30;0.30;;;;;;;13.87;88.46;98630.75;5076092;28;20048;-84
2023/07/23 03:00:23;;;;;;;0.40;0.40;;;;;;;14.00;88.01;98633.94;5072719;28;20050;-83
2023/07/23 03:02:50;;;;;;;0.38;0.38;;;;;;;14.06;87.43;98644.50;5072323;28;20048;-84
2023/07/23 03:05:18;;;;;;;0.30;0.30;;;;;;;14.10;87.01;98639.34;5073658;28;20052;-84
2023/07/23 03:07:46;;;;;;;0.40;0.40;;;;;;;14.08;86.52;98642.34;5055846;28;20542;-84
2023/07/23 03:10:13;;;;;;;0.38;0.38;;;;;;;14.16;86.33;98648.28;5056049;28;20544;-85
2023/07/23 03:12:40;;;;;;;0.40;0.40;;;;;;;14.19;86.23;98653.16;5056823;28;20048;-83
2023/07/23 03:15:08;;;;;;;0.30;0.30;;;;;;;14.17;86.18;98653.44;5073406;28;20049;-84
2023/07/23 03:17:35;;;;;;;0.40;0.40;;;;;;;14.17;85.85;98656.16;5074454;28;20051;-83
2023/07/23 03:20:03;;;;;;;0.40;0.40;;;;;;;14.16;85.73;98646.38;5056724;28;20049;-83
2023/07/23 03:22:30;;;;;;;0.40;0.40;;;;;;;14.26;85.28;98643.63;5081231;28;20108;-82
2023/07/23 03:24:58;;;;;;;0.40;0.40;;;;;;;14.47;84.59;98644.34;5081338;28;20036;-85
2023/07/23 03:27:25;;;;;;;0.40;0.40;;;;;;;14.68;83.97;98649.72;5089091;28;20048;-84
2023/07/23 03:29:52;;;;;;;0.40;0.40;;;;;;;14.88;83.01;98643.34;5099135;28;20067;-84
2023/07/23 03:32:19;;;;;;;0.40;0.40;;;;;;;15.03;82.23;98645.97;5084782;28;20044;-82
2023/07/23 03:34:46;;;;;;;0.40;0.40;;;;;;;15.25;81.05;98642.03;5100075;28;20666;-85
2023/07/23 03:37:13;;;;;;;0.40;0.40;;;;;;;15.34;79.89;98645.72;5060588;28;20593;-84
2023/07/23 03:39:40;;;;;;;0.32;0.32;;;;;;;15.35;79.56;98647.38;5093892;28;20109;-84
2023/07/23 03:42:07;;;;;;;0.30;0.30;;;;;;;15.41;79.28;98648.13;5093602;28;20048;-82
2023/07/23 03:44:34;;;;;;;0.40;0.40;;;;;;;15.40;79.16;98644.63;5109082;28;20075;-83
2023/07/23 03:47:18;;;;;;;0.40;0.40;;;;;;;15.38;79.19;98644.88;5093545;28;20399;-84
2023/07/23 03:49:46;;;;;;;0.40;0.40;;;;;;;15.32;78.99;98640.59;5059108;28;20056;-84
2023/07/23 03:52:14;;;;;;;0.40;0.40;;;;;;;15.28;78.94;98642.25;5075115;28;20044;-83
2023/07/23 03:54:41;;;;;;;0.30;0.30;;;;;;;15.25;79.33;98644.75;5093479;28;20047;-82
2023/07/23 03:57:09;;;;;;;0.40;0.40;;;;;;;15.26;79.07;98646.34;5093278;28;20143;-83
2023/07/23 03:59:44;;;;;;;0.30;0.30;;;;;;;15.23;79.35;98649.63;5093300;28;20052;-84
2023/07/23 04:02:11;;;;;;;0.40;0.40;;;;;;;15.14;79.90;98652.97;5091719;28;20052;-84
2023/07/23 04:04:40;;;;;;;0.40;0.40;;;;;;;15.10;80.38;98646.47;5080190;28;20553;-84
2023/07/23 04:07:07;;;;;;;0.30;0.30;;;;;;;15.03;80.56;98645.97;5074810;28;20126;-84
2023/07/23 04:09:35;;;;;;;0.40;0.40;;;;;;;15.03;80.63;98648.69;5082182;28;20028;-84
2023/07/23 04:12:02;;;;;;;0.40;0.40;;;;;;;15.11;80.11;98658.94;5084252;28;20040;-84
2023/07/23 04:14:29;;;;;;;0.40;0.40;;;;;;;15.06;80.04;98656.25;5088060;28;20044;-84
2023/07/23 04:16:56;;;;;;;0.40;0.40;;;;;;;14.97;80.49;98657.16;5072606;28;20068;-82
2023/07/23 04:19:23;;;;;;;0.40;0.40;;;;;;;14.89;80.98;98664.00;5072207;28;20098;-83
2023/07/23 04:21:50;;;;;;;0.40;0.40;;;;;;;14.83;81.74;98654.25;5038119;28;20048;-83
2023/07/23 04:24:17;;;;;;;0.40;0.40;;;;;;;14.83;81.84;98655.06;5072159;28;20048;-83
2023/07/23 04:26:44;;;;;;;0.40;0.40;;;;;;;14.97;81.66;98666.13;5054303;28;20048;-83
2023/07/23 04:29:11;;;;;;;0.40;0.40;;;;;;;15.14;81.33;98666.56;5054123;28;20052;-83
2023/07/23 04:31:38;;;;;;;0.40;0.40;;;;;;;15.21;81.29;98674.38;5083810;28;20048;-83
2023/07/23 04:34:06;;;;;;;0.40;0.40;;;;;;;15.33;81.09;98660.44;5057504;28;20044;-83
2023/07/23 04:36:33;;;;;;;0.40;0.40;;;;;;;15.51;80.69;98661.66;5090343;28;20039;-83
2023/07/23 04:39:02;;;;;;;0.40;0.40;;;;;;;15.65;80.48;98661.78;5092119;28;20055;-83
2023/07/23 04:41:31;;;;;;;0.40;0.40;;;;;;;15.82;79.74;98659.47;5090702;28;20044;-83
2023/07/23 04:43:58;;;;;;;0.40;0.40;;;;;;;15.82;79.62;98659.47;5091945;28;20506;-84
2023/07/23 04:46:25;;;;;;;0.40;0.40;;;;;;;15.96;79.33;98665.88;5092000;28;20058;-84
2023/07/23 04:48:53;;;;;;;0.40;0.40;;;;;;;16.10;79.01;98663.25;5086769;28;20507;-83
2023/07/23 04:51:21;;;;;;;0.40;0.40;;;;;;;16.22;78.21;98660.94;5056323;28;20056;-86
2023/07/23 04:53:49;;;;;;;0.40;0.40;;;;;;;16.37;76.94;98654.53;5081330;28;20075;-84
2023/07/23 04:56:16;;;;;;;0.40;0.40;;;;;;;16.52;75.80;98650.00;5079535;28;20059;-84
2023/07/23 04:58:43;;;;;;;0.40;0.40;;;;;;;16.63;75.07;98643.28;5054146;28;20056;-83
2023/07/23 05:01:11;;;;;;;0.40;0.40;;;;;;;16.69;74.48;98636.69;5071315;28;20423;-85
2023/07/23 05:03:39;;;;;;;0.40;0.40;;;;;;;16.63;74.91;98632.41;5071622;28;20055;-82
2023/07/23 05:06:09;;;;;;;0.40;0.40;;;;;;;16.67;75.19;98633.44;5072114;28;20053;-82
2023/07/23 05:08:36;;;;;;;0.40;0.40;;;;;;;16.77;75.17;98632.50;5076872;28;20051;-83
2023/07/23 05:11:04;;;;;;;0.50;0.50;;;;;;;16.99;74.67;98635.47;5072274;28;20045;-84
2023/07/23 05:13:33;;;;;;;0.40;0.40;;;;;;;17.35;73.20;98634.91;5053420;28;20070;-82
2023/07/23 05:16:02;;;;;;;0.40;0.40;;;;;;;17.57;71.98;98623.34;5070832;28;20051;-85
2023/07/23 05:18:30;;;;;;;0.43;0.43;;;;;;;17.75;71.39;98621.69;5070617;28;20049;-83
2023/07/23 05:20:57;;;;;;;0.50;0.50;;;;;;;18.17;70.10;98631.53;5053028;28;20579;-83
2023/07/23 05:23:24;;;;;;;0.40;0.40;;;;;;;18.67;68.32;98625.31;5055729;28;20056;-83
2023/07/23 05:25:51;;;;;;;0.40;0.40;;;;;;;19.04;66.32;98620.66;5081202;28;20048;-84
2023/07/23 05:28:18;;;;;;;0.40;0.40;;;;;;;19.20;65.43;98623.88;5061524;28;20049;-83
2023/07/23 05:30:45;;;;;;;0.40;0.40;;;;;;;19.04;65.51;98621.50;5081190;28;20097;-83
2023/07/23 05:33:12;;;;;;;0.40;0.40;;;;;;;19.02;65.98;98628.41;5081148;28;20510;-84
2023/07/23 05:35:39;;;;;;;0.40;0.40;;;;;;;18.97;65.21;98620.31;5080086;28;20056;-82
2023/07/23 05:38:07;;;;;;;0.30;0.30;;;;;;;18.89;65.63;98621.84;5079997;28;20043;-83
2023/07/23 05:40:36;;;;;;;0.40;0.40;;;;;;;18.95;64.90;98620.63;5079176;28;20048;-82
2023/07/23 05:43:16;;;;;;;0.40;0.40;;;;;;;18.96;64.92;98621.41;5080972;28;20052;-82
2023/07/23 05:45:43;;;;;;;0.30;0.30;;;;;;;18.95;65.74;98628.81;5079490;28;20476;-83
2023/07/23 05:48:10;;;;;;;0.40;0.40;;;;;;;18.95;65.95;98617.88;5069415;28;20050;-86
2023/07/23 05:50:37;;;;;;;0.30;0.30;;;;;;;19.00;66.03;98625.16;5072736;28;20048;-81
2023/07/23 05:53:04;;;;;;;0.35;0.35;;;;;;;18.79;65.25;98633.81;5070084;28;20051;-82
2023/07/23 05:55:31;;;;;;;0.30;0.30;;;;;;;18.41;66.73;98630.53;5069304;28;20052;-83
2023/07/23 05:57:58;;;;;;;0.30;0.30;;;;;;;18.24;67.55;98619.41;5068805;28;20056;-81
2023/07/23 06:00:25;;;;;;;0.30;0.30;;;;;;;18.10;67.58;98630.31;5068835;28;20473;-80
2023/07/23 06:02:52;;;;;;;0.40;0.40;;;;;;;18.09;68.05;98628.72;5073273;28;20051;-82
2023/07/23 06:05:20;;;;;;;0.30;0.30;;;;;;;18.07;68.56;98626.28;5055093;28;20052;-83
2023/07/23 06:07:47;;;;;;;0.30;0.30;;;;;;;18.10;68.68;98636.59;5074786;28;20095;-84
2023/07/23 06:10:14;;;;;;;0.32;0.32;;;;;;;18.10;68.87;98635.78;5074141;28;20076;-85
2023/07/23 06:12:41;;;;;;;0.30;0.30;;;;;;;18.16;69.11;98627.19;5073264;28;20132;-88
2023/07/23 06:15:11;;;;;;;0.30;0.30;;;;;;;18.25;68.99;98629.22;5041829;28;20131;-82
2023/07/23 06:17:38;;;;;;;0.30;0.30;;;;;;;18.32;69.31;98626.88;5074385;28;20051;-84
2023/07/23 06:20:06;;;;;;;0.40;0.40;;;;;;;18.31;69.43;98631.53;5072820;28;20143;-83
2023/07/23 06:22:32;;;;;;;0.30;0.30;;;;;;;18.40;69.64;98628.91;5074851;28;20044;-83
2023/07/23 06:25:00;;;;;;;0.30;0.30;;;;;;;18.50;69.72;98630.59;5099951;28;20048;-86
2023/07/23 06:27:27;;;;;;;0.30;0.30;;;;;;;18.63;69.52;98627.88;5069016;28;20048;-81
2023/07/23 06:29:54;;;;;;;0.30;0.30;;;;;;;18.62;69.75;98636.34;5081798;28;20049;-84
2023/07/23 06:32:21;;;;;;;0.40;0.40;;;;;;;18.62;70.14;98633.63;5080982;28;20084;-82
2023/07/23 06:34:48;;;;;;;0.30;0.30;;;;;;;18.54;69.64;98640.63;5078016;28;20417;-83
2023/07/23 06:37:15;;;;;;;0.40;0.40;;;;;;;18.33;70.22;98628.50;5073602;28;20076;-84
2023/07/23 06:39:45;;;;;;;0.40;0.40;;;;;;;18.27;70.67;98632.44;5057021;28;20592;-86
2023/07/23 06:42:12;;;;;;;0.30;0.30;;;;;;;18.29;71.29;98639.22;5069488;28;20465;-83
2023/07/23 06:44:40;;;;;;;0.38;0.38;;;;;;;18.27;71.16;98643.38;5049345;28;20055;-85
2023/07/23 06:47:08;;;;;;;0.38;0.38;;;;;;;18.29;71.27;98635.69;5052742;28;20529;-83
2023/07/23 06:49:37;;;;;;;0.40;0.40;;;;;;;18.39;71.48;98632.75;5071076;28;20097;-86
2023/07/23 06:52:05;;;;;;;0.40;0.40;;;;;;;18.56;70.84;98627.47;5069571;28;20044;-86
2023/07/23 06:54:32;;;;;;;0.30;0.30;;;;;;;18.51;71.05;98630.31;5052467;28;20036;-84
2023/07/23 06:56:59;;;;;;;0.40;0.40;;;;;;;18.54;70.78;98620.69;5052904;28;20059;-86
2023/07/23 06:59:27;;;;;;;0.40;0.40;;;;;;;18.66;70.55;98620.16;5069663;28;20411;-84
2023/07/23 07:01:56;;;;;;;0.30;0.30;;;;;;;18.87;69.88;98620.56;5057173;28;20098;-86
2023/07/23 07:04:26;;;;;;;0.35;0.35;;;;;;;18.81;67.04;98628.03;5051625;28;20054;-85
2023/07/23 07:06:56;;;;;;;0.30;0.30;;;;;;;18.63;67.54;98619.66;5085654;28;20135;-87
2023/07/23 07:09:24;;;;;;;0.40;0.40;;;;;;;18.68;67.80;98617.91;5069134;28;20075;-86
2023/07/23 07:11:51;;;;;;;0.40;0.40;;;;;;;18.76;67.04;98617.22;5070003;28;20044;-85
2023/07/23 07:14:19;;;;;;;0.40;0.40;;;;;;;18.89;66.97;98612.81;5051359;28;20041;-85
2023/07/23 07:16:46;;;;;;;0.40;0.40;;;;;;;19.15;67.10;98613.06;5052836;28;20533;-88
2023/07/23 07:19:13;;;;;;;0.40;0.40;;;;;;;19.32;66.16;98609.63;5069977;28;20044;-87
2023/07/23 07:21:41;;;;;;;0.35;0.35;;;;;;;19.59;65.70;98616.88;5057422;28;20588;-87
2023/07/23 07:24:08;;;;;;;0.40;0.40;;;;;;;19.82;65.24;98609.44;5058732;28;20089;-84
2023/07/23 07:26:37;;;;;;;0.40;0.40;;;;;;;20.14;63.95;98611.03;5081171;28;20105;-84
2023/07/23 07:29:03;;;;;;;0.40;0.40;;;;;;;20.39;62.95;98614.97;5060555;28;20487;-85
2023/07/23 07:31:31;;;;;;;0.40;0.40;;;;;;;20.50;61.90;98613.53;5073107;28;20082;-85
2023/07/23 07:34:03;;;;;;;0.40;0.40;;;;;;;20.39;61.78;98619.66;5069631;28;20138;-85
2023/07/23 07:36:30;;;;;;;0.30;0.30;;;;;;;20.25;62.02;98614.28;5079149;28;20056;-83
2023/07/23 07:38:57;;;;;;;0.30;0.30;;;;;;;20.32;61.93;98620.91;5051839;28;20048;-85
2023/07/23 07:41:24;;;;;;;0.40;0.40;;;;;;;20.53;61.12;98604.72;5052398;28;20098;-83
2023/07/23 07:43:52;;;;;;;0.40;0.40;;;;;;;20.78;60.17;98616.84;5072806;28;20079;-84
2023/07/23 07:46:19;;;;;;;0.40;0.40;;;;;;;20.84;58.89;98608.44;5072709;28;20045;-87
2023/07/23 07:48:46;;;;;;;0.30;0.30;;;;;;;20.47;58.46;98619.66;5073112;28;20049;-83
2023/07/23 07:51:13;;;;;;;0.30;0.30;;;;;;;20.28;59.30;98619.13;5071913;28;20052;-83
2023/07/23 07:53:40;;;;;;;0.30;0.30;;;;;;;20.17;60.55;98621.34;5088496;28;20060;-82
2023/07/23 07:56:13;;;;;;;0.30;0.30;;;;;;;20.10;61.36;98615.53;5053603;28;20040;-84
2023/07/23 07:58:41;;;;;;;0.40;0.40;;;;;;;20.07;61.45;98636.13;5055170;28;20051;-84
2023/07/23 08:01:08;;;;;;;0.30;0.30;;;;;;;19.97;62.48;98616.44;5073542;28;20671;-84
2023/07/23 08:03:35;;;;;;;0.30;0.30;;;;;;;19.84;62.48;98626.38;5081520;28;20052;-88
2023/07/23 08:06:03;;;;;;;0.30;0.30;;;;;;;19.78;62.85;98617.50;5092377;28;20052;-91
2023/07/23 08:08:33;;;;;;;0.40;0.40;;;;;;;19.49;63.46;98621.47;5093534;28;20044;-87
2023/07/23 08:11:04;;;;;;;0.30;0.30;;;;;;;19.46;64.29;98635.78;5073016;28;20052;-86
2023/07/23 08:13:32;;;;;;;0.40;0.40;;;;;;;19.57;64.12;98627.31;5078202;28;20053;-88
2023/07/23 08:15:59;;;;;;;0.40;0.40;;;;;;;19.84;62.32;98629.91;5040659;28;20072;-87
2023/07/23 08:18:26;;;;;;;0.50;0.50;;;;;;;20.22;62.10;98628.63;5074077;28;20101;-89
2023/07/23 08:20:57;;;;;;;0.60;0.60;;;;;;;20.80;60.18;98623.94;5066871;28;20506;-86
2023/07/23 08:23:27;;;;;;;0.50;0.50;;;;;;;21.36;58.46;98619.41;5074601;28;20075;-85
2023/07/23 08:25:59;;;;;;;0.40;0.40;;;;;;;21.24;56.81;98616.53;5089752;28;20090;-88
2023/07/23 08:28:32;;;;;;;0.40;0.40;;;;;;;21.25;57.75;98620.91;5078688;28;20048;-88
2023/07/23 08:31:01;;;;;;;0.30;0.30;;;;;;;21.04;57.76;98618.81;5062197;28;20137;-86
2023/07/23 08:33:30;;;;;;;0.40;0.40;;;;;;;20.83;58.25;98618.63;5065064;28;20570;-89
2023/07/23 08:36:00;;;;;;;0.40;0.40;;;;;;;20.84;58.74;98627.66;5058737;28;20040;-89
2023/07/23 08:38:29;;;;;;;0.40;0.40;;;;;;;21.02;58.89;98617.53;5045563;28;20074;-88
2023/07/23 08:41:00;;;;;;;0.30;0.30;;;;;;;21.20;58.53;98621.88;5057189;28;20059;-88
2023/07/23 08:43:49;;;;;;;0.30;0.30;;;;;;;20.85;58.75;98627.34;5068899;28;20072;-88
2023/07/23 08:46:21;;;;;;;0.30;0.30;;;;;;;20.45;60.50;98612.91;5075422;28;20055;-88
2023/07/23 08:48:54;;;;;;;0.30;0.30;;;;;;;20.42;60.24;98611.59;5065893;28;20135;-90
2023/07/23 08:51:24;;;;;;;0.30;0.30;;;;;;;20.28;60.74;98619.97;5060575;28;20068;-87
2023/07/23 08:53:53;;;;;;;0.30;0.30;;;;;;;20.09;61.20;98613.91;5078497;28;20059;-85
2023/07/23 08:56:20;;;;;;;0.30;0.30;;;;;;;19.92;61.78;98617.38;5092422;28;20052;-88
2023/07/23 08:58:47;;;;;;;0.30;0.30;;;;;;;19.83;61.82;98613.81;5093232;28;20056;-86
2023/07/23 09:01:15;;;;;;;0.30;0.30;;;;;;;19.96;61.72;98610.16;5081182;28;20074;-89
2023/07/23 09:03:47;;;;;;;0.30;0.30;;;;;;;20.04;61.92;98612.13;5060868;28;20058;-90
2023/07/23 09:06:19;;;;;;;0.30;0.30;;;;;;;19.82;62.58;98632.16;5019514;28;20522;-89
2023/07/23 09:08:46;;;;;;;0.30;0.30;;;;;;;19.70;62.94;98621.81;5088620;28;20094;-88
2023/07/23 09:11:13;;;;;;;0.30;0.30;;;;;;;19.63;63.01;98620.59;5073650;28;20028;-89
2023/07/23 09:13:40;;;;;;;0.40;0.40;;;;;;;19.96;62.86;98617.59;5072258;28;20446;-89
2023/07/23 09:16:07;;;;;;;0.40;0.40;;;;;;;20.47;61.87;98621.63;5078880;28;20044;-86
2023/07/23 09:18:40;;;;;;;0.40;0.40;;;;;;;20.54;61.47;98611.00;5073642;28;20044;-93
2023/07/23 09:21:09;;;;;;;0.40;0.40;;;;;;;20.73;60.90;98638.94;5067060;28;20052;-90
2023/07/23 09:24:05;;;;;;;0.30;0.30;;;;;;;20.27;62.48;98610.09;5026115;28;20104;-92
2023/07/23 09:26:36;;;;;;;0.30;0.30;;;;;;;19.92;64.07;98640.09;5034764;28;20118;-88
2023/07/23 09:29:07;;;;;;;0.30;0.30;;;;;;;19.52;65.34;98609.09;5033358;28;20746;-86
2023/07/23 09:32:02;;;;;;;0.30;0.30;;;;;;;19.33;65.88;98612.06;4992669;28;20052;-87
2023/07/23 09:34:29;;;;;;;0.30;0.30;;;;;;;19.15;66.42;98594.72;4991522;28;20086;-88
2023/07/23 09:37:01;;;;;;;0.30;0.30;;;;;;;19.13;65.96;98601.59;5004563;28;20070;-90
2023/07/23 09:39:58;;;;;;;0.30;0.30;;;;;;;19.05;65.19;98614.09;4993967;28;20054;-86
2023/07/23 09:42:25;;;;;;;0.30;0.30;;;;;;;18.85;66.43;98609.91;4985897;28;20081;-86
2023/07/23 09:45:10;;;;;;;0.30;0.30;;;;;;;18.75;67.77;98610.13;4937109;29;20045;-87
2023/07/23 09:47:38;;;;;;;0.30;0.30;;;;;;;18.50;68.63;98601.34;4989413;28;20031;-88
2023/07/23 09:50:55;;;;;;;0.40;0.40;;;;;;;18.47;69.14;98587.50;4975701;28;20047;-90
2023/07/23 09:53:22;;;;;;;0.30;0.30;;;;;;;18.80;69.33;98604.56;5017763;28;20053;-88
2023/07/23 09:55:52;;;;;;;0.30;0.30;;;;;;;18.98;68.40;98594.56;5011284;28;20054;-88
2023/07/23 09:58:21;;;;;;;0.40;0.40;;;;;;;19.16;67.93;98607.25;4992717;28;20045;-89
2023/07/23 10:00:49;;;;;;;0.30;0.30;;;;;;;19.34;66.89;98602.72;4996567;28;20420;-88
2023/07/23 10:03:17;;;;;;;0.40;0.40;;;;;;;19.38;67.10;98597.44;5011278;28;20408;-87
2023/07/23 10:05:45;;;;;;;0.40;0.40;;;;;;;19.59;66.50;98614.94;5010683;28;20046;-87
2023/07/23 10:08:12;;;;;;;0.40;0.40;;;;;;;19.54;66.48;98595.09;5010897;28;20058;-86
2023/07/23 10:10:39;;;;;;;0.40;0.40;;;;;;;19.69;65.84;98592.81;4993701;28;20046;-87
2023/07/23 10:13:06;;;;;;;0.40;0.40;;;;;;;20.04;64.00;98603.09;5029006;28;20046;-88
2023/07/23 10:15:35;;;;;;;0.30;0.30;;;;;;;19.82;64.49;98595.75;5011748;28;20049;-88
2023/07/23 10:18:04;;;;;;;0.40;0.40;;;;;;;19.85;64.73;98595.94;5009550;28;20156;-84
2023/07/23 10:20:32;;;;;;;0.40;0.40;;;;;;;20.00;64.61;98597.44;5011139;28;20061;-85
2023/07/23 10:23:03;;;;;;;0.40;0.40;;;;;;;20.23;62.90;98600.09;5009962;28;20464;-85
2023/07/23 10:25:32;;;;;;;0.40;0.40;;;;;;;20.37;62.11;98589.03;5022867;28;20049;-85
2023/07/23 10:28:09;;;;;;;0.50;0.50;;;;;;;21.08;60.07;98597.00;5009805;28;20057;-83
2023/07/23 10:30:36;;;;;;;0.40;0.40;;;;;;;21.41;59.27;98595.38;5010968;28;20057;-83
2023/07/23 10:33:11;;;;;;;0.30;0.30;;;;;;;21.12;58.35;98576.84;5010731;28;20050;-85
2023/07/23 10:35:48;;;;;;;0.30;0.30;;;;;;;20.41;60.36;98590.81;5006779;28;20054;-86
2023/07/23 10:38:19;;;;;;;0.30;0.30;;;;;;;20.05;61.38;98596.50;5010969;28;20527;-86
2023/07/23 10:40:47;;;;;;;0.30;0.30;;;;;;;19.83;62.36;98605.59;5024616;28;20057;-86
2023/07/23 10:43:15;;;;;;;0.30;0.30;;;;;;;19.61;63.02;98607.22;5009606;28;20050;-85
2023/07/23 10:46:02;;;;;;;0.30;0.30;;;;;;;19.43;63.61;98583.63;5007686;28;20054;-85
2023/07/23 10:48:49;;;;;;;0.30;0.30;;;;;;;19.34;64.04;98589.03;5022847;28;20047;-85
2023/07/23 10:51:21;;;;;;;0.30;0.30;;;;;;;19.35;64.44;98587.94;5013688;28;20671;-87
2023/07/23 10:54:06;;;;;;;0.30;0.30;;;;;;;19.60;64.08;98594.66;5013654;28;20511;-88
2023/07/23 10:56:39;;;;;;;0.40;0.40;;;;;;;19.80;63.36;98596.09;5009531;28;20054;-86
2023/07/23 10:59:14;;;;;;;0.35;0.35;;;;;;;19.87;62.50;98592.88;5012613;28;20046;-85
2023/07/23 11:01:43;;;;;;;0.30;0.30;;;;;;;19.75;63.33;98587.19;5027392;28;20145;-86
2023/07/23 11:04:15;;;;;;;0.30;0.30;;;;;;;19.81;62.64;98596.91;5012663;28;20081;-84
2023/07/23 11:07:02;;;;;;;0.30;0.30;;;;;;;19.69;62.46;98590.06;5011325;28;20077;-87
2023/07/23 11:09:32;;;;;;;0.30;0.30;;;;;;;19.48;62.91;98580.75;5012227;28;20073;-85
2023/07/23 11:12:02;;;;;;;0.30;0.30;;;;;;;19.39;63.14;98582.63;5024475;28;20153;-85
2023/07/23 11:14:30;;;;;;;0.30;0.30;;;;;;;19.23;63.67;98587.69;5001819;28;20054;-85
2023/07/23 11:17:02;;;;;;;0.30;0.30;;;;;;;19.20;64.04;98571.91;4992991;28;20101;-86
2023/07/23 11:19:31;;;;;;;0.30;0.30;;;;;;;19.10;63.77;98575.69;5004672;28;20198;-85
2023/07/23 11:22:00;;;;;;;0.30;0.30;;;;;;;18.84;64.86;98584.50;5006016;28;20046;-85
2023/07/23 11:24:28;;;;;;;0.30;0.30;;;;;;;18.49;65.99;98588.81;5002635;28;20678;-86
2023/07/23 11:27:01;;;;;;;0.30;0.30;;;;;;;18.10;67.45;98565.59;4993379;28;20082;-84
2023/07/23 11:29:29;;;;;;;0.30;0.30;;;;;;;17.97;68.75;98567.22;4995253;28;20137;-86
2023/07/23 11:32:00;;;;;;;0.30;0.30;;;;;;;18.03;69.39;98569.84;5042596;28;20532;-86
2023/07/23 11:34:27;;;;;;;0.30;0.30;;;;;;;18.10;69.93;98554.66;5013580;28;20080;-85
2023/07/23 11:36:55;;;;;;;0.30;0.30;;;;;;;18.21;69.77;98559.94;5012801;28;20050;-84
2023/07/23 11:39:25;;;;;;;0.30;0.30;;;;;;;18.27;69.24;98558.69;5010425;28;20049;-84
2023/07/23 11:41:53;;;;;;;0.30;0.30;;;;;;;18.32;69.77;98553.13;5013421;28;20471;-84